Аэропорт: Жезказган. Жезказган

ICAO: UAKD

METAR:
2022-01-28 07:30:00
UAKD 280730Z 07008MPS CAVOK M11/M15 Q1018 NOSIG RMK QFE730/0973
METAR:
2022-01-28 05:01:00
TAF UAKD 280501Z 2806/2815 06007MPS 6000 SCT011 BKN100 TEMPO 2806/2812 09009MPS TEMPO 2812/2815 09007MPS 3100 BR BKN005